sensor_id;sensor_type;location;lat;lon;timestamp;P1;durP1;ratioP1;P2;durP2;ratioP2
58978;SDS011;44763;50.464;30.612;2022-08-06T00:00:00;8.73;;;8.13;;
58978;SDS011;44763;50.464;30.612;2022-08-06T00:02:31;8.90;;;8.40;;
58978;SDS011;44763;50.464;30.612;2022-08-06T00:04:59;8.78;;;8.08;;
58978;SDS011;44763;50.464;30.612;2022-08-06T00:07:28;8.95;;;8.25;;
58978;SDS011;44763;50.464;30.612;2022-08-06T00:09:54;8.48;;;7.72;;
58978;SDS011;44763;50.464;30.612;2022-08-06T00:12:22;8.78;;;8.28;;
58978;SDS011;44763;50.464;30.612;2022-08-06T00:14:48;9.38;;;8.58;;
58978;SDS011;44763;50.464;30.612;2022-08-06T00:17:14;11.83;;;8.15;;
58978;SDS011;44763;50.464;30.612;2022-08-06T00:19:41;8.18;;;7.55;;
58978;SDS011;44763;50.464;30.612;2022-08-06T00:24:33;9.03;;;8.40;;
58978;SDS011;44763;50.464;30.612;2022-08-06T00:29:25;9.80;;;9.10;;
58978;SDS011;44763;50.464;30.612;2022-08-06T00:34:17;9.48;;;8.65;;
58978;SDS011;44763;50.464;30.612;2022-08-06T00:39:09;8.88;;;8.08;;
58978;SDS011;44763;50.464;30.612;2022-08-06T00:41:36;11.80;;;9.40;;
58978;SDS011;44763;50.464;30.612;2022-08-06T00:44:03;8.90;;;8.03;;
58978;SDS011;44763;50.464;30.612;2022-08-06T00:46:30;12.65;;;8.78;;
58978;SDS011;44763;50.464;30.612;2022-08-06T00:48:58;9.68;;;8.88;;
58978;SDS011;44763;50.464;30.612;2022-08-06T00:53:52;8.78;;;8.18;;
58978;SDS011;44763;50.464;30.612;2022-08-06T00:56:18;8.40;;;7.80;;
58978;SDS011;44763;50.464;30.612;2022-08-06T00:58:45;9.40;;;8.48;;
58978;SDS011;44763;50.464;30.612;2022-08-06T01:01:11;8.25;;;7.65;;
58978;SDS011;44763;50.464;30.612;2022-08-06T01:03:38;8.03;;;7.42;;
58978;SDS011;44763;50.464;30.612;2022-08-06T01:06:04;8.73;;;8.00;;
58978;SDS011;44763;50.464;30.612;2022-08-06T01:08:30;8.68;;;7.87;;
58978;SDS011;44763;50.464;30.612;2022-08-06T01:10:57;7.47;;;6.85;;
58978;SDS011;44763;50.464;30.612;2022-08-06T01:15:51;8.75;;;8.00;;
58978;SDS011;44763;50.464;30.612;2022-08-06T01:18:27;7.87;;;7.25;;
58978;SDS011;44763;50.464;30.612;2022-08-06T01:26:39;7.78;;;7.20;;
58978;SDS011;44763;50.464;30.612;2022-08-06T01:32:05;8.13;;;7.45;;
58978;SDS011;44763;50.464;30.612;2022-08-06T01:34:45;8.33;;;7.72;;
58978;SDS011;44763;50.464;30.612;2022-08-06T01:37:13;7.97;;;7.33;;
58978;SDS011;44763;50.464;30.612;2022-08-06T01:39:44;7.67;;;7.17;;
58978;SDS011;44763;50.464;30.612;2022-08-06T01:42:12;8.50;;;7.53;;
58978;SDS011;44763;50.464;30.612;2022-08-06T01:44:42;7.55;;;6.97;;
58978;SDS011;44763;50.464;30.612;2022-08-06T01:47:12;8.73;;;8.13;;
58978;SDS011;44763;50.464;30.612;2022-08-06T01:49:42;10.30;;;7.03;;
58978;SDS011;44763;50.464;30.612;2022-08-06T01:52:14;7.62;;;6.92;;
58978;SDS011;44763;50.464;30.612;2022-08-06T01:54:43;7.92;;;7.35;;
58978;SDS011;44763;50.464;30.612;2022-08-06T01:57:12;7.05;;;6.55;;
58978;SDS011;44763;50.464;30.612;2022-08-06T01:59:44;8.05;;;7.33;;
58978;SDS011;44763;50.464;30.612;2022-08-06T02:02:15;6.83;;;6.22;;
58978;SDS011;44763;50.464;30.612;2022-08-06T02:04:47;7.78;;;7.28;;
58978;SDS011;44763;50.464;30.612;2022-08-06T02:07:22;8.03;;;7.50;;
58978;SDS011;44763;50.464;30.612;2022-08-06T02:09:51;8.48;;;7.72;;
58978;SDS011;44763;50.464;30.612;2022-08-06T02:12:19;7.90;;;7.12;;
58978;SDS011;44763;50.464;30.612;2022-08-06T02:14:56;8.58;;;7.55;;
58978;SDS011;44763;50.464;30.612;2022-08-06T02:17:28;7.83;;;7.33;;
58978;SDS011;44763;50.464;30.612;2022-08-06T02:19:56;7.65;;;7.08;;
58978;SDS011;44763;50.464;30.612;2022-08-06T02:22:29;7.65;;;6.92;;
58978;SDS011;44763;50.464;30.612;2022-08-06T02:25:02;7.78;;;7.28;;
58978;SDS011;44763;50.464;30.612;2022-08-06T02:27:33;9.18;;;8.33;;
58978;SDS011;44763;50.464;30.612;2022-08-06T02:30:01;7.90;;;7.08;;
58978;SDS011;44763;50.464;30.612;2022-08-06T02:32:28;8.00;;;7.30;;
58978;SDS011;44763;50.464;30.612;2022-08-06T02:34:55;8.38;;;7.87;;
58978;SDS011;44763;50.464;30.612;2022-08-06T02:37:22;9.13;;;8.25;;
58978;SDS011;44763;50.464;30.612;2022-08-06T02:42:39;8.38;;;7.67;;
58978;SDS011;44763;50.464;30.612;2022-08-06T02:45:15;9.23;;;8.18;;
58978;SDS011;44763;50.464;30.612;2022-08-06T02:50:41;8.30;;;7.80;;
58978;SDS011;44763;50.464;30.612;2022-08-06T02:53:13;9.25;;;8.55;;
58978;SDS011;44763;50.464;30.612;2022-08-06T02:55:46;9.20;;;8.40;;
58978;SDS011;44763;50.464;30.612;2022-08-06T02:58:19;8.75;;;8.10;;
58978;SDS011;44763;50.464;30.612;2022-08-06T03:00:49;8.43;;;7.28;;
58978;SDS011;44763;50.464;30.612;2022-08-06T03:03:22;9.65;;;8.85;;
58978;SDS011;44763;50.464;30.612;2022-08-06T03:05:50;9.00;;;8.10;;
58978;SDS011;44763;50.464;30.612;2022-08-06T03:08:18;7.33;;;6.77;;
58978;SDS011;44763;50.464;30.612;2022-08-06T03:10:48;7.87;;;7.28;;
58978;SDS011;44763;50.464;30.612;2022-08-06T03:13:18;8.05;;;7.35;;
58978;SDS011;44763;50.464;30.612;2022-08-06T03:15:47;6.92;;;6.53;;
58978;SDS011;44763;50.464;30.612;2022-08-06T03:18:15;6.87;;;6.37;;
58978;SDS011;44763;50.464;30.612;2022-08-06T03:20:43;7.25;;;6.65;;
58978;SDS011;44763;50.464;30.612;2022-08-06T03:23:10;6.83;;;6.28;;
58978;SDS011;44763;50.464;30.612;2022-08-06T03:25:39;7.05;;;6.53;;
58978;SDS011;44763;50.464;30.612;2022-08-06T03:28:07;7.00;;;6.50;;
58978;SDS011;44763;50.464;30.612;2022-08-06T03:30:38;7.60;;;7.00;;
58978;SDS011;44763;50.464;30.612;2022-08-06T03:33:14;7.40;;;6.83;;
58978;SDS011;44763;50.464;30.612;2022-08-06T03:35:39;6.25;;;5.78;;
58978;SDS011;44763;50.464;30.612;2022-08-06T03:38:09;7.08;;;6.53;;
58978;SDS011;44763;50.464;30.612;2022-08-06T03:40:37;7.30;;;6.42;;
58978;SDS011;44763;50.464;30.612;2022-08-06T03:43:08;7.50;;;6.90;;
58978;SDS011;44763;50.464;30.612;2022-08-06T03:45:38;7.10;;;6.50;;
58978;SDS011;44763;50.464;30.612;2022-08-06T03:48:09;6.72;;;5.95;;
58978;SDS011;44763;50.464;30.612;2022-08-06T03:50:40;7.70;;;5.60;;
58978;SDS011;44763;50.464;30.612;2022-08-06T03:53:23;5.80;;;5.30;;
58978;SDS011;44763;50.464;30.612;2022-08-06T03:55:55;5.90;;;5.60;;
58978;SDS011;44763;50.464;30.612;2022-08-06T03:58:23;6.20;;;5.65;;
58978;SDS011;44763;50.464;30.612;2022-08-06T04:01:04;6.22;;;5.60;;
58978;SDS011;44763;50.464;30.612;2022-08-06T04:03:35;6.40;;;6.00;;
58978;SDS011;44763;50.464;30.612;2022-08-06T04:06:03;6.03;;;5.58;;
58978;SDS011;44763;50.464;30.612;2022-08-06T04:08:31;7.03;;;5.80;;
58978;SDS011;44763;50.464;30.612;2022-08-06T04:10:59;6.08;;;5.47;;
58978;SDS011;44763;50.464;30.612;2022-08-06T04:13:26;5.83;;;5.42;;
58978;SDS011;44763;50.464;30.612;2022-08-06T04:15:53;5.70;;;5.33;;
58978;SDS011;44763;50.464;30.612;2022-08-06T04:18:22;6.47;;;5.87;;
58978;SDS011;44763;50.464;30.612;2022-08-06T04:20:55;6.10;;;5.70;;
58978;SDS011;44763;50.464;30.612;2022-08-06T04:23:26;5.97;;;5.58;;
58978;SDS011;44763;50.464;30.612;2022-08-06T04:25:53;5.90;;;5.40;;
58978;SDS011;44763;50.464;30.612;2022-08-06T04:28:23;7.47;;;5.47;;
58978;SDS011;44763;50.464;30.612;2022-08-06T04:30:51;6.65;;;6.05;;
58978;SDS011;44763;50.464;30.612;2022-08-06T04:33:21;6.53;;;6.03;;
58978;SDS011;44763;50.464;30.612;2022-08-06T04:35:49;6.35;;;5.83;;
58978;SDS011;44763;50.464;30.612;2022-08-06T04:38:16;6.42;;;5.97;;
58978;SDS011;44763;50.464;30.612;2022-08-06T04:40:45;7.22;;;6.70;;
58978;SDS011;44763;50.464;30.612;2022-08-06T04:43:12;6.17;;;5.53;;
58978;SDS011;44763;50.464;30.612;2022-08-06T04:45:39;6.17;;;5.62;;
58978;SDS011;44763;50.464;30.612;2022-08-06T04:48:09;5.70;;;5.15;;
58978;SDS011;44763;50.464;30.612;2022-08-06T04:50:37;6.03;;;5.72;;
58978;SDS011;44763;50.464;30.612;2022-08-06T04:53:13;7.20;;;6.10;;
58978;SDS011;44763;50.464;30.612;2022-08-06T04:55:42;9.05;;;7.25;;
58978;SDS011;44763;50.464;30.612;2022-08-06T04:58:10;6.65;;;6.10;;
58978;SDS011;44763;50.464;30.612;2022-08-06T05:00:40;5.92;;;5.55;;
58978;SDS011;44763;50.464;30.612;2022-08-06T05:03:09;6.70;;;5.90;;
58978;SDS011;44763;50.464;30.612;2022-08-06T05:05:39;6.20;;;5.70;;
58978;SDS011;44763;50.464;30.612;2022-08-06T05:08:12;6.45;;;5.95;;
58978;SDS011;44763;50.464;30.612;2022-08-06T05:10:41;6.15;;;5.40;;
58978;SDS011;44763;50.464;30.612;2022-08-06T05:13:11;5.50;;;5.10;;
58978;SDS011;44763;50.464;30.612;2022-08-06T05:15:40;5.45;;;5.12;;
58978;SDS011;44763;50.464;30.612;2022-08-06T05:18:17;6.28;;;5.97;;
58978;SDS011;44763;50.464;30.612;2022-08-06T05:20:53;7.10;;;6.47;;
58978;SDS011;44763;50.464;30.612;2022-08-06T05:23:25;6.28;;;5.72;;
58978;SDS011;44763;50.464;30.612;2022-08-06T05:26:05;6.65;;;6.10;;
58978;SDS011;44763;50.464;30.612;2022-08-06T05:28:33;6.60;;;6.10;;
58978;SDS011;44763;50.464;30.612;2022-08-06T05:30:59;8.63;;;5.85;;
58978;SDS011;44763;50.464;30.612;2022-08-06T05:33:30;5.97;;;5.58;;
58978;SDS011;44763;50.464;30.612;2022-08-06T05:35:59;7.05;;;6.00;;
58978;SDS011;44763;50.464;30.612;2022-08-06T05:38:26;7.67;;;5.35;;
58978;SDS011;44763;50.464;30.612;2022-08-06T05:40:54;5.85;;;5.42;;
58978;SDS011;44763;50.464;30.612;2022-08-06T05:43:24;5.42;;;5.03;;
58978;SDS011;44763;50.464;30.612;2022-08-06T05:45:52;6.12;;;5.22;;
58978;SDS011;44763;50.464;30.612;2022-08-06T05:48:22;5.75;;;5.37;;
58978;SDS011;44763;50.464;30.612;2022-08-06T05:50:54;5.72;;;5.33;;
58978;SDS011;44763;50.464;30.612;2022-08-06T05:53:26;5.37;;;5.08;;
58978;SDS011;44763;50.464;30.612;2022-08-06T05:56:04;5.35;;;5.05;;
58978;SDS011;44763;50.464;30.612;2022-08-06T05:58:39;6.15;;;5.65;;
58978;SDS011;44763;50.464;30.612;2022-08-06T06:01:09;5.33;;;5.08;;
58978;SDS011;44763;50.464;30.612;2022-08-06T06:03:37;5.22;;;4.97;;
58978;SDS011;44763;50.464;30.612;2022-08-06T06:06:08;4.78;;;4.58;;
58978;SDS011;44763;50.464;30.612;2022-08-06T06:08:36;4.65;;;4.33;;
58978;SDS011;44763;50.464;30.612;2022-08-06T06:11:04;5.83;;;5.47;;
58978;SDS011;44763;50.464;30.612;2022-08-06T06:13:52;5.45;;;5.15;;
58978;SDS011;44763;50.464;30.612;2022-08-06T06:16:24;5.15;;;4.70;;
58978;SDS011;44763;50.464;30.612;2022-08-06T06:19:04;6.35;;;6.03;;
58978;SDS011;44763;50.464;30.612;2022-08-06T06:21:51;8.43;;;5.35;;
58978;SDS011;44763;50.464;30.612;2022-08-06T06:27:28;5.70;;;4.87;;
58978;SDS011;44763;50.464;30.612;2022-08-06T06:30:26;5.97;;;5.55;;
58978;SDS011;44763;50.464;30.612;2022-08-06T06:33:02;6.10;;;5.67;;
58978;SDS011;44763;50.464;30.612;2022-08-06T06:35:42;6.08;;;5.65;;
58978;SDS011;44763;50.464;30.612;2022-08-06T06:41:10;6.62;;;6.17;;
58978;SDS011;44763;50.464;30.612;2022-08-06T06:48:53;5.90;;;5.55;;
58978;SDS011;44763;50.464;30.612;2022-08-06T06:51:27;6.78;;;6.05;;
58978;SDS011;44763;50.464;30.612;2022-08-06T06:53:57;5.78;;;5.37;;
58978;SDS011;44763;50.464;30.612;2022-08-06T06:56:25;5.67;;;5.28;;
58978;SDS011;44763;50.464;30.612;2022-08-06T06:58:58;5.75;;;5.33;;
58978;SDS011;44763;50.464;30.612;2022-08-06T07:01:36;6.05;;;5.67;;
58978;SDS011;44763;50.464;30.612;2022-08-06T07:04:05;6.47;;;5.40;;
58978;SDS011;44763;50.464;30.612;2022-08-06T07:06:36;6.10;;;5.70;;
58978;SDS011;44763;50.464;30.612;2022-08-06T07:09:03;5.90;;;5.47;;
58978;SDS011;44763;50.464;30.612;2022-08-06T07:11:31;6.00;;;5.42;;
58978;SDS011;44763;50.464;30.612;2022-08-06T07:13:59;6.00;;;5.70;;
58978;SDS011;44763;50.464;30.612;2022-08-06T07:16:27;6.55;;;6.00;;
58978;SDS011;44763;50.464;30.612;2022-08-06T07:18:57;5.92;;;5.47;;
58978;SDS011;44763;50.464;30.612;2022-08-06T07:21:26;4.58;;;4.30;;
58978;SDS011;44763;50.464;30.612;2022-08-06T07:23:53;6.08;;;4.75;;
58978;SDS011;44763;50.464;30.612;2022-08-06T07:26:21;5.17;;;4.85;;
58978;SDS011;44763;50.464;30.612;2022-08-06T07:28:49;4.87;;;4.12;;
58978;SDS011;44763;50.464;30.612;2022-08-06T07:31:18;5.62;;;5.15;;
58978;SDS011;44763;50.464;30.612;2022-08-06T07:33:49;5.55;;;5.08;;
58978;SDS011;44763;50.464;30.612;2022-08-06T07:36:18;5.97;;;5.45;;
58978;SDS011;44763;50.464;30.612;2022-08-06T07:38:48;5.00;;;4.70;;
58978;SDS011;44763;50.464;30.612;2022-08-06T07:41:15;5.50;;;5.03;;
58978;SDS011;44763;50.464;30.612;2022-08-06T07:45:11;5.50;;;5.10;;
58978;SDS011;44763;50.464;30.612;2022-08-06T07:47:40;4.47;;;4.17;;
58978;SDS011;44763;50.464;30.612;2022-08-06T07:50:09;4.33;;;4.12;;
58978;SDS011;44763;50.464;30.612;2022-08-06T07:52:39;4.50;;;4.30;;
58978;SDS011;44763;50.464;30.612;2022-08-06T07:55:07;5.90;;;4.85;;
58978;SDS011;44763;50.464;30.612;2022-08-06T07:57:38;4.35;;;4.08;;
58978;SDS011;44763;50.464;30.612;2022-08-06T08:00:06;5.67;;;5.28;;
58978;SDS011;44763;50.464;30.612;2022-08-06T08:02:37;5.42;;;5.03;;
58978;SDS011;44763;50.464;30.612;2022-08-06T08:05:04;5.25;;;4.75;;
58978;SDS011;44763;50.464;30.612;2022-08-06T08:07:51;5.50;;;5.15;;
58978;SDS011;44763;50.464;30.612;2022-08-06T08:10:17;4.85;;;4.45;;
58978;SDS011;44763;50.464;30.612;2022-08-06T08:12:46;4.92;;;4.53;;
58978;SDS011;44763;50.464;30.612;2022-08-06T08:15:12;6.08;;;4.35;;
58978;SDS011;44763;50.464;30.612;2022-08-06T08:17:39;5.22;;;4.78;;
58978;SDS011;44763;50.464;30.612;2022-08-06T08:20:06;4.85;;;4.55;;
58978;SDS011;44763;50.464;30.612;2022-08-06T08:22:34;6.05;;;5.53;;
58978;SDS011;44763;50.464;30.612;2022-08-06T08:25:01;5.60;;;5.17;;
58978;SDS011;44763;50.464;30.612;2022-08-06T08:27:27;5.72;;;5.33;;
58978;SDS011;44763;50.464;30.612;2022-08-06T08:29:53;6.05;;;5.55;;
58978;SDS011;44763;50.464;30.612;2022-08-06T08:32:19;5.87;;;5.37;;
58978;SDS011;44763;50.464;30.612;2022-08-06T08:34:47;5.55;;;5.25;;
58978;SDS011;44763;50.464;30.612;2022-08-06T08:37:13;7.25;;;6.55;;
58978;SDS011;44763;50.464;30.612;2022-08-06T08:39:39;6.35;;;5.90;;
58978;SDS011;44763;50.464;30.612;2022-08-06T08:42:17;5.78;;;5.47;;
58978;SDS011;44763;50.464;30.612;2022-08-06T08:44:44;6.97;;;6.37;;
58978;SDS011;44763;50.464;30.612;2022-08-06T08:47:12;5.70;;;5.30;;
58978;SDS011;44763;50.464;30.612;2022-08-06T08:49:40;5.83;;;4.03;;
58978;SDS011;44763;50.464;30.612;2022-08-06T08:52:13;5.25;;;4.92;;
58978;SDS011;44763;50.464;30.612;2022-08-06T08:54:44;5.47;;;5.10;;
58978;SDS011;44763;50.464;30.612;2022-08-06T08:57:13;5.45;;;5.15;;
58978;SDS011;44763;50.464;30.612;2022-08-06T08:59:41;5.62;;;5.10;;
58978;SDS011;44763;50.464;30.612;2022-08-06T09:02:11;6.12;;;5.62;;
58978;SDS011;44763;50.464;30.612;2022-08-06T09:04:39;5.25;;;4.95;;
58978;SDS011;44763;50.464;30.612;2022-08-06T09:07:07;5.10;;;4.72;;
58978;SDS011;44763;50.464;30.612;2022-08-06T09:09:36;6.10;;;5.70;;
58978;SDS011;44763;50.464;30.612;2022-08-06T09:12:05;4.78;;;4.47;;
58978;SDS011;44763;50.464;30.612;2022-08-06T09:14:34;4.67;;;4.47;;
58978;SDS011;44763;50.464;30.612;2022-08-06T09:17:02;4.92;;;4.53;;
58978;SDS011;44763;50.464;30.612;2022-08-06T09:19:31;5.05;;;4.65;;
58978;SDS011;44763;50.464;30.612;2022-08-06T09:21:58;5.42;;;4.87;;
58978;SDS011;44763;50.464;30.612;2022-08-06T09:24:26;5.08;;;4.78;;
58978;SDS011;44763;50.464;30.612;2022-08-06T09:27:09;5.45;;;5.05;;
58978;SDS011;44763;50.464;30.612;2022-08-06T09:29:48;6.85;;;6.45;;
58978;SDS011;44763;50.464;30.612;2022-08-06T09:35:30;6.70;;;6.20;;
58978;SDS011;44763;50.464;30.612;2022-08-06T09:37:48;7.22;;;6.70;;
58978;SDS011;44763;50.464;30.612;2022-08-06T09:40:17;6.53;;;6.05;;
58978;SDS011;44763;50.464;30.612;2022-08-06T09:42:46;6.10;;;5.83;;
58978;SDS011;44763;50.464;30.612;2022-08-06T09:45:14;6.53;;;6.08;;
58978;SDS011;44763;50.464;30.612;2022-08-06T09:47:47;6.22;;;5.90;;
58978;SDS011;44763;50.464;30.612;2022-08-06T09:50:15;6.83;;;6.42;;
58978;SDS011;44763;50.464;30.612;2022-08-06T09:53:01;6.20;;;5.55;;
58978;SDS011;44763;50.464;30.612;2022-08-06T09:55:29;6.08;;;5.67;;
58978;SDS011;44763;50.464;30.612;2022-08-06T09:57:57;6.00;;;5.62;;
58978;SDS011;44763;50.464;30.612;2022-08-06T10:00:24;4.03;;;3.72;;
58978;SDS011;44763;50.464;30.612;2022-08-06T10:02:57;4.58;;;4.25;;
58978;SDS011;44763;50.464;30.612;2022-08-06T10:05:31;5.92;;;4.35;;
58978;SDS011;44763;50.464;30.612;2022-08-06T10:08:09;6.95;;;4.10;;
58978;SDS011;44763;50.464;30.612;2022-08-06T10:13:16;4.25;;;3.95;;
58978;SDS011;44763;50.464;30.612;2022-08-06T10:15:46;3.60;;;3.37;;
58978;SDS011;44763;50.464;30.612;2022-08-06T10:18:29;3.52;;;3.20;;
58978;SDS011;44763;50.464;30.612;2022-08-06T10:21:09;3.62;;;3.40;;
58978;SDS011;44763;50.464;30.612;2022-08-06T10:23:39;3.40;;;3.20;;
58978;SDS011;44763;50.464;30.612;2022-08-06T10:26:08;3.02;;;2.90;;
58978;SDS011;44763;50.464;30.612;2022-08-06T10:28:37;3.70;;;3.40;;
58978;SDS011;44763;50.464;30.612;2022-08-06T10:31:08;3.47;;;3.17;;
58978;SDS011;44763;50.464;30.612;2022-08-06T10:36:22;3.77;;;3.65;;
58978;SDS011;44763;50.464;30.612;2022-08-06T10:38:51;3.15;;;2.95;;
58978;SDS011;44763;50.464;30.612;2022-08-06T10:41:19;3.52;;;3.33;;
58978;SDS011;44763;50.464;30.612;2022-08-06T10:43:46;3.90;;;3.70;;
58978;SDS011;44763;50.464;30.612;2022-08-06T10:46:14;3.83;;;3.50;;
58978;SDS011;44763;50.464;30.612;2022-08-06T10:48:45;2.98;;;2.77;;
58978;SDS011;44763;50.464;30.612;2022-08-06T10:51:14;2.70;;;2.60;;
58978;SDS011;44763;50.464;30.612;2022-08-06T10:53:45;2.30;;;2.20;;
58978;SDS011;44763;50.464;30.612;2022-08-06T10:56:12;4.10;;;2.83;;
58978;SDS011;44763;50.464;30.612;2022-08-06T10:58:41;3.25;;;3.15;;
58978;SDS011;44763;50.464;30.612;2022-08-06T11:01:19;3.12;;;2.70;;
58978;SDS011;44763;50.464;30.612;2022-08-06T11:04:18;3.10;;;2.90;;
58978;SDS011;44763;50.464;30.612;2022-08-06T11:15:58;3.05;;;2.85;;
58978;SDS011;44763;50.464;30.612;2022-08-06T11:18:24;3.50;;;3.22;;
58978;SDS011;44763;50.464;30.612;2022-08-06T11:20:51;4.08;;;3.58;;
58978;SDS011;44763;50.464;30.612;2022-08-06T11:25:50;4.15;;;3.05;;
58978;SDS011;44763;50.464;30.612;2022-08-06T11:31:01;3.30;;;3.10;;
58978;SDS011;44763;50.464;30.612;2022-08-06T11:36:06;3.60;;;3.20;;
58978;SDS011;44763;50.464;30.612;2022-08-06T11:51:49;2.83;;;2.67;;
58978;SDS011;44763;50.464;30.612;2022-08-06T11:54:23;3.30;;;3.20;;
58978;SDS011;44763;50.464;30.612;2022-08-06T12:02:07;4.85;;;3.40;;
58978;SDS011;44763;50.464;30.612;2022-08-06T12:20:35;3.12;;;2.77;;
58978;SDS011;44763;50.464;30.612;2022-08-06T12:23:05;2.47;;;2.40;;
58978;SDS011;44763;50.464;30.612;2022-08-06T12:25:36;2.22;;;2.12;;
58978;SDS011;44763;50.464;30.612;2022-08-06T12:28:06;2.58;;;2.47;;
58978;SDS011;44763;50.464;30.612;2022-08-06T12:30:42;2.30;;;2.20;;
58978;SDS011;44763;50.464;30.612;2022-08-06T12:33:12;2.15;;;2.08;;
58978;SDS011;44763;50.464;30.612;2022-08-06T12:36:00;1.95;;;1.85;;
58978;SDS011;44763;50.464;30.612;2022-08-06T12:38:27;2.58;;;2.15;;
58978;SDS011;44763;50.464;30.612;2022-08-06T12:41:03;1.70;;;1.65;;
58978;SDS011;44763;50.464;30.612;2022-08-06T12:43:33;4.28;;;2.45;;
58978;SDS011;44763;50.464;30.612;2022-08-06T12:46:03;2.77;;;1.98;;
58978;SDS011;44763;50.464;30.612;2022-08-06T12:48:35;2.25;;;2.15;;
58978;SDS011;44763;50.464;30.612;2022-08-06T12:51:07;1.75;;;1.65;;
58978;SDS011;44763;50.464;30.612;2022-08-06T12:56:13;2.92;;;2.25;;
58978;SDS011;44763;50.464;30.612;2022-08-06T12:58:40;3.02;;;2.80;;
58978;SDS011;44763;50.464;30.612;2022-08-06T13:01:13;4.55;;;2.58;;
58978;SDS011;44763;50.464;30.612;2022-08-06T13:03:47;1.65;;;1.55;;
58978;SDS011;44763;50.464;30.612;2022-08-06T13:06:13;2.00;;;1.90;;
58978;SDS011;44763;50.464;30.612;2022-08-06T13:08:44;2.33;;;2.10;;
58978;SDS011;44763;50.464;30.612;2022-08-06T13:11:12;3.67;;;2.85;;
58978;SDS011;44763;50.464;30.612;2022-08-06T13:13:40;2.67;;;2.47;;
58978;SDS011;44763;50.464;30.612;2022-08-06T13:16:10;4.17;;;2.47;;
58978;SDS011;44763;50.464;30.612;2022-08-06T13:18:39;2.35;;;2.25;;
58978;SDS011;44763;50.464;30.612;2022-08-06T13:21:15;2.12;;;2.02;;
58978;SDS011;44763;50.464;30.612;2022-08-06T13:23:48;2.20;;;2.10;;
58978;SDS011;44763;50.464;30.612;2022-08-06T13:26:19;2.50;;;2.10;;
58978;SDS011;44763;50.464;30.612;2022-08-06T13:31:38;2.25;;;2.15;;
58978;SDS011;44763;50.464;30.612;2022-08-06T13:34:07;3.70;;;2.33;;
58978;SDS011;44763;50.464;30.612;2022-08-06T13:36:39;2.37;;;2.27;;
58978;SDS011;44763;50.464;30.612;2022-08-06T13:39:21;2.05;;;2.00;;
58978;SDS011;44763;50.464;30.612;2022-08-06T13:42:07;3.02;;;2.20;;
58978;SDS011;44763;50.464;30.612;2022-08-06T13:44:39;2.47;;;2.37;;
58978;SDS011;44763;50.464;30.612;2022-08-06T13:47:09;2.58;;;2.37;;
58978;SDS011;44763;50.464;30.612;2022-08-06T13:49:39;2.27;;;2.17;;
58978;SDS011;44763;50.464;30.612;2022-08-06T13:52:06;2.02;;;1.90;;
58978;SDS011;44763;50.464;30.612;2022-08-06T13:54:33;2.35;;;1.95;;
58978;SDS011;44763;50.464;30.612;2022-08-06T13:56:59;3.20;;;2.42;;
58978;SDS011;44763;50.464;30.612;2022-08-06T13:59:26;6.83;;;2.75;;
58978;SDS011;44763;50.464;30.612;2022-08-06T14:01:58;2.33;;;2.22;;
58978;SDS011;44763;50.464;30.612;2022-08-06T14:04:27;2.20;;;2.10;;
58978;SDS011;44763;50.464;30.612;2022-08-06T14:06:55;2.65;;;2.47;;
58978;SDS011;44763;50.464;30.612;2022-08-06T14:09:26;4.37;;;2.90;;
58978;SDS011;44763;50.464;30.612;2022-08-06T14:11:55;2.27;;;2.22;;
58978;SDS011;44763;50.464;30.612;2022-08-06T14:14:24;3.60;;;2.60;;
58978;SDS011;44763;50.464;30.612;2022-08-06T14:16:53;2.58;;;2.47;;
58978;SDS011;44763;50.464;30.612;2022-08-06T14:19:21;2.58;;;2.37;;
58978;SDS011;44763;50.464;30.612;2022-08-06T14:21:47;5.28;;;2.50;;
58978;SDS011;44763;50.464;30.612;2022-08-06T14:24:13;2.58;;;2.42;;
58978;SDS011;44763;50.464;30.612;2022-08-06T14:26:39;4.92;;;2.45;;
58978;SDS011;44763;50.464;30.612;2022-08-06T14:29:05;3.20;;;2.90;;
58978;SDS011;44763;50.464;30.612;2022-08-06T14:31:32;2.50;;;2.33;;
58978;SDS011;44763;50.464;30.612;2022-08-06T14:33:59;2.45;;;2.27;;
58978;SDS011;44763;50.464;30.612;2022-08-06T14:36:26;3.27;;;2.33;;
58978;SDS011;44763;50.464;30.612;2022-08-06T14:38:54;3.10;;;2.47;;
58978;SDS011;44763;50.464;30.612;2022-08-06T14:41:21;2.55;;;2.45;;
58978;SDS011;44763;50.464;30.612;2022-08-06T14:44:07;1.90;;;1.90;;
58978;SDS011;44763;50.464;30.612;2022-08-06T14:46:53;2.52;;;2.42;;
58978;SDS011;44763;50.464;30.612;2022-08-06T14:49:19;2.95;;;2.75;;
58978;SDS011;44763;50.464;30.612;2022-08-06T14:51:45;2.58;;;2.45;;
58978;SDS011;44763;50.464;30.612;2022-08-06T14:54:12;2.47;;;2.37;;
58978;SDS011;44763;50.464;30.612;2022-08-06T14:56:39;5.50;;;2.67;;
58978;SDS011;44763;50.464;30.612;2022-08-06T14:59:07;3.05;;;2.85;;
58978;SDS011;44763;50.464;30.612;2022-08-06T15:01:33;4.83;;;2.72;;
58978;SDS011;44763;50.464;30.612;2022-08-06T15:03:59;2.58;;;2.47;;
58978;SDS011;44763;50.464;30.612;2022-08-06T15:06:25;2.12;;;2.12;;
58978;SDS011;44763;50.464;30.612;2022-08-06T15:08:52;4.37;;;2.72;;
58978;SDS011;44763;50.464;30.612;2022-08-06T15:11:21;2.47;;;2.33;;
58978;SDS011;44763;50.464;30.612;2022-08-06T15:13:47;5.12;;;2.62;;
58978;SDS011;44763;50.464;30.612;2022-08-06T15:16:13;2.17;;;2.08;;
58978;SDS011;44763;50.464;30.612;2022-08-06T15:18:39;2.80;;;2.35;;
58978;SDS011;44763;50.464;30.612;2022-08-06T15:21:09;2.20;;;2.10;;
58978;SDS011;44763;50.464;30.612;2022-08-06T15:23:35;2.17;;;2.10;;
58978;SDS011;44763;50.464;30.612;2022-08-06T15:26:01;2.92;;;2.62;;
58978;SDS011;44763;50.464;30.612;2022-08-06T15:28:28;2.72;;;2.62;;
58978;SDS011;44763;50.464;30.612;2022-08-06T15:30:54;4.15;;;2.30;;
58978;SDS011;44763;50.464;30.612;2022-08-06T15:33:20;2.55;;;1.98;;
58978;SDS011;44763;50.464;30.612;2022-08-06T15:35:47;2.17;;;2.08;;
58978;SDS011;44763;50.464;30.612;2022-08-06T15:38:14;3.85;;;3.15;;
58978;SDS011;44763;50.464;30.612;2022-08-06T15:40:40;2.75;;;2.55;;
58978;SDS011;44763;50.464;30.612;2022-08-06T15:43:07;2.05;;;1.85;;
58978;SDS011;44763;50.464;30.612;2022-08-06T15:45:33;4.08;;;2.22;;
58978;SDS011;44763;50.464;30.612;2022-08-06T15:47:59;2.40;;;2.30;;
58978;SDS011;44763;50.464;30.612;2022-08-06T15:50:25;2.40;;;2.30;;
58978;SDS011;44763;50.464;30.612;2022-08-06T15:52:52;2.20;;;1.95;;
58978;SDS011;44763;50.464;30.612;2022-08-06T15:55:18;5.28;;;1.92;;
58978;SDS011;44763;50.464;30.612;2022-08-06T15:57:47;2.85;;;2.17;;
58978;SDS011;44763;50.464;30.612;2022-08-06T16:00:14;2.62;;;2.42;;
58978;SDS011;44763;50.464;30.612;2022-08-06T16:02:42;3.80;;;2.37;;
58978;SDS011;44763;50.464;30.612;2022-08-06T16:05:08;1.98;;;1.87;;
58978;SDS011;44763;50.464;30.612;2022-08-06T16:07:35;2.80;;;2.60;;
58978;SDS011;44763;50.464;30.612;2022-08-06T16:10:01;2.58;;;2.25;;
58978;SDS011;44763;50.464;30.612;2022-08-06T16:12:27;2.65;;;1.70;;
58978;SDS011;44763;50.464;30.612;2022-08-06T16:14:54;2.37;;;2.25;;
58978;SDS011;44763;50.464;30.612;2022-08-06T16:17:21;2.40;;;2.20;;
58978;SDS011;44763;50.464;30.612;2022-08-06T16:19:48;2.33;;;1.70;;
58978;SDS011;44763;50.464;30.612;2022-08-06T16:22:14;2.10;;;2.00;;
58978;SDS011;44763;50.464;30.612;2022-08-06T16:24:40;3.17;;;1.98;;
58978;SDS011;44763;50.464;30.612;2022-08-06T16:27:07;2.17;;;2.08;;
58978;SDS011;44763;50.464;30.612;2022-08-06T16:29:35;1.75;;;1.65;;
58978;SDS011;44763;50.464;30.612;2022-08-06T16:32:02;3.33;;;1.75;;
58978;SDS011;44763;50.464;30.612;2022-08-06T16:34:29;2.10;;;2.00;;